IKU weather

Issyk-Kul International Airport
Tamchy, Issyk Kul Region, Kyrgyzstan

Public forecast

Using degrees Celsius for public forecast. Weather courtesy of forecast.io.

Closest aviation weather report (METAR) to Issyk-Kul International Airport

Closest report is Almaty Airport, 48.1 nm (89.1 km) NNE. Retrieved 2020/02/26 04:30 UTC (10 minutes ago):

UAAA 260430Z VRB01MPS 3600 BR SCT200 07/00 Q1016 R88/65D NOSIG

Closest aviation forecast (TAF) to Issyk-Kul International Airport

Closest forecast is Almaty Airport, 48.1 nm (89.1 km) NNE. Retrieved 2020-02-26 00:21 UTC (4 hours ago):

TAF UAAA 252300Z 2600/2624 04003G08MPS 1300 BR FU BKN100 TX13/2609Z TNM01/2601Z TEMPO 2600/2603 18003MPS 0400 FZFG VV002 TEMPO 2603/2606 2500 BECMG 2606/2607 3100 BR FU SCT050 BKN100 TEMPO 2606/2614 08005G10MPS 5000 TEMPO 2614/2624 22004G09MPS 1500 BKN030CB BKN100